首页
METAR-TAF:

METAR-TAF

机场 :

納沃伊國際機場

纳沃伊, 乌兹别克斯坦

纬度: 40-07-04N, 经度: 065-10-30E, 海拔: 348米

当前天气观测

该预报发布于45分钟前的01:00 UTC
风速6节,风向东转东南
温度 19°C
湿度 49%
气压 1008 hPa
能见度10公里或以上

METAR: UTSA 310100Z 12006KT 9999 NSC 19/08 Q1008 R25/CLRD70 NOSIG

时间: 06:45 (01:45 UTC)

预报

该预报发布于2小时和44分钟前的23:01 UTC
预报有效从31日的 00点(UTC)到 31日的 24点(UTC)
风速3节,风向多变
能見度: 7000
短暂存在
从 31日的 02点(UTC)到 31日的 13点(UTC)
风速14节,风向北转东北

TAF: UTSA 302301Z 3100/3124 VRB03KT 7000 NSC TX40/3111Z TEMPO 3102/3113 03014KT

超过4000个机场的气象观测和天气预报(METAR&TAF报告)。

可查询的气象台以黄色和红色小点在地图上表示。

将鼠标移到小点上方,可查看气象台名称。

然后点击查看天气观测和预报。

如需切换地图:点击带黑十字的绿色按钮放大地图;点击带横线的绿色按钮缩小地图;或者点击绿色箭头查看邻近地区的地图。


METAR-TAF: